createdAt,value
2023-02-22T00:01:50.852Z,7.30
2023-02-22T00:04:20.971Z,7.83
2023-02-22T00:06:49.118Z,6.87
2023-02-22T00:09:20.426Z,8.43
2023-02-22T00:11:48.879Z,8.57
2023-02-22T00:14:17.918Z,8.17
2023-02-22T00:16:44.511Z,9.67
2023-02-22T00:19:11.170Z,7.77
2023-02-22T00:21:37.724Z,8.57
2023-02-22T00:24:22.706Z,8.07
2023-02-22T00:26:55.434Z,7.60
2023-02-22T00:29:23.311Z,9.37
2023-02-22T00:31:50.254Z,7.47
2023-02-22T00:34:17.387Z,9.87
2023-02-22T00:36:49.381Z,8.00
2023-02-22T00:39:16.171Z,8.40
2023-02-22T00:41:43.238Z,8.33
2023-02-22T00:44:10.363Z,8.40
2023-02-22T00:46:37.257Z,9.13
2023-02-22T00:49:05.127Z,8.83
2023-02-22T00:51:33.749Z,8.43
2023-02-22T00:54:00.423Z,8.70
2023-02-22T00:56:26.974Z,9.40
2023-02-22T00:58:53.585Z,8.90
2023-02-22T01:01:20.700Z,8.80
2023-02-22T01:03:47.428Z,8.53
2023-02-22T01:06:14.092Z,8.63
2023-02-22T01:08:45.090Z,8.20
2023-02-22T01:11:12.071Z,8.77
2023-02-22T01:13:38.676Z,8.33
2023-02-22T01:16:08.214Z,9.03
2023-02-22T01:18:36.489Z,7.33
2023-02-22T01:21:04.347Z,8.43
2023-02-22T01:23:31.386Z,8.17
2023-02-22T01:25:58.559Z,7.87
2023-02-22T01:28:25.163Z,8.00
2023-02-22T01:30:52.023Z,8.83
2023-02-22T01:33:18.677Z,8.97
2023-02-22T01:35:46.199Z,7.90
2023-02-22T01:38:14.021Z,8.30
2023-02-22T01:40:42.809Z,7.97
2023-02-22T01:43:18.793Z,8.40
2023-02-22T01:46:00.801Z,7.83
2023-02-22T01:48:44.764Z,8.97
2023-02-22T01:51:16.915Z,8.77
2023-02-22T01:53:58.937Z,7.13
2023-02-22T01:56:28.065Z,7.90
2023-02-22T01:59:08.995Z,7.50
2023-02-22T02:01:37.863Z,7.83
2023-02-22T02:04:08.776Z,8.07
2023-02-22T02:06:36.908Z,7.93
2023-02-22T02:09:22.979Z,8.57
2023-02-22T02:11:50.845Z,8.20
2023-02-22T02:14:17.850Z,9.10
2023-02-22T02:16:53.588Z,8.30
2023-02-22T02:19:49.499Z,7.77
2023-02-22T02:22:50.581Z,7.53
2023-02-22T02:25:43.789Z,8.30
2023-02-22T02:28:28.543Z,8.60
2023-02-22T02:31:18.981Z,7.80
2023-02-22T02:34:05.050Z,7.67
2023-02-22T02:36:52.518Z,8.27
2023-02-22T02:39:39.539Z,8.07
2023-02-22T02:42:11.652Z,9.73
2023-02-22T02:44:44.381Z,7.97
2023-02-22T02:47:28.835Z,8.83
2023-02-22T02:50:02.981Z,10.03
2023-02-22T02:52:33.316Z,9.80
2023-02-22T02:55:00.623Z,10.50
2023-02-22T02:57:27.789Z,9.97
2023-02-22T02:59:54.344Z,8.63
2023-02-22T03:02:51.410Z,9.20
2023-02-22T03:05:40.868Z,9.90
2023-02-22T03:08:16.231Z,8.97
2023-02-22T03:10:58.628Z,8.77
2023-02-22T03:13:31.039Z,9.07
2023-02-22T03:16:21.742Z,9.07
2023-02-22T03:19:00.240Z,8.53
2023-02-22T03:21:48.968Z,8.10
2023-02-22T03:24:37.688Z,8.77
2023-02-22T03:27:09.960Z,8.73
2023-02-22T03:29:42.660Z,7.63
2023-02-22T03:32:14.827Z,7.53
2023-02-22T03:34:47.865Z,9.07
2023-02-22T03:37:22.229Z,8.20
2023-02-22T03:39:53.327Z,7.93
2023-02-22T03:42:37.544Z,8.33
2023-02-22T03:45:05.024Z,9.03
2023-02-22T03:47:45.407Z,8.23
2023-02-22T03:50:22.480Z,7.93
2023-02-22T03:52:49.256Z,7.97
2023-02-22T03:55:17.668Z,9.60
2023-02-22T03:57:49.627Z,7.90
2023-02-22T04:00:20.055Z,8.73
2023-02-22T04:02:47.038Z,7.83
2023-02-22T04:05:14.167Z,8.63
2023-02-22T04:07:41.548Z,8.37
2023-02-22T04:10:08.814Z,7.60
2023-02-22T04:12:36.291Z,7.50
2023-02-22T04:15:03.808Z,9.70
2023-02-22T04:17:30.478Z,8.27
2023-02-22T04:19:57.129Z,7.23
2023-02-22T04:22:23.690Z,7.77
2023-02-22T04:24:50.246Z,6.73
2023-02-22T04:27:16.844Z,7.40
2023-02-22T04:29:43.472Z,6.77
2023-02-22T04:32:10.101Z,6.20
2023-02-22T04:34:36.751Z,8.10
2023-02-22T04:37:03.543Z,6.50
2023-02-22T04:39:30.269Z,6.67
2023-02-22T04:41:56.826Z,7.83
2023-02-22T04:44:23.364Z,8.03
2023-02-22T04:46:49.966Z,7.43
2023-02-22T04:49:16.610Z,7.53
2023-02-22T04:51:43.256Z,7.27
2023-02-22T04:54:09.959Z,7.53
2023-02-22T04:56:36.574Z,7.10
2023-02-22T04:59:03.214Z,5.43
2023-02-22T05:01:34.852Z,6.33
2023-02-22T05:04:06.784Z,7.33
2023-02-22T05:06:33.694Z,6.53
2023-02-22T05:09:00.366Z,7.10
2023-02-22T05:11:26.953Z,7.87
2023-02-22T05:13:53.520Z,7.10
2023-02-22T05:16:20.164Z,7.20
2023-02-22T05:18:46.748Z,7.40
2023-02-22T05:21:13.489Z,6.97
2023-02-22T05:23:40.153Z,6.80
2023-02-22T05:26:06.774Z,7.27
2023-02-22T05:28:33.494Z,6.90
2023-02-22T05:31:00.059Z,6.03
2023-02-22T05:33:26.651Z,5.63
2023-02-22T05:35:55.867Z,7.23
2023-02-22T05:38:22.916Z,6.93
2023-02-22T05:40:49.586Z,6.53
2023-02-22T05:43:16.498Z,6.90
2023-02-22T05:45:43.313Z,5.70
2023-02-22T05:48:09.862Z,6.00
2023-02-22T05:50:36.393Z,6.70
2023-02-22T05:53:03.141Z,7.20
2023-02-22T05:55:29.753Z,6.63
2023-02-22T05:57:56.325Z,5.97
2023-02-22T06:00:32.863Z,5.97
2023-02-22T06:03:02.804Z,6.40
2023-02-22T06:05:30.045Z,5.07
2023-02-22T06:07:57.723Z,5.87
2023-02-22T06:10:24.843Z,5.97
2023-02-22T06:12:53.975Z,6.80
2023-02-22T06:15:22.193Z,7.13
2023-02-22T06:17:49.445Z,6.33
2023-02-22T06:20:18.954Z,6.43
2023-02-22T06:22:47.829Z,7.00
2023-02-22T06:25:16.540Z,6.67
2023-02-22T06:27:43.255Z,7.17
2023-02-22T06:30:13.314Z,7.63
2023-02-22T06:32:40.110Z,6.27
2023-02-22T06:35:07.469Z,6.90
2023-02-22T06:37:34.217Z,6.57
2023-02-22T06:40:05.281Z,6.60
2023-02-22T06:42:32.563Z,7.33
2023-02-22T06:44:59.304Z,7.87
2023-02-22T06:47:26.035Z,6.13
2023-02-22T06:49:57.001Z,7.00
2023-02-22T06:52:23.908Z,6.87
2023-02-22T06:54:51.128Z,7.07
2023-02-22T06:57:17.991Z,6.43
2023-02-22T06:59:44.766Z,7.13
2023-02-22T07:02:12.515Z,7.50
2023-02-22T07:04:40.996Z,7.60
2023-02-22T07:07:08.834Z,8.07
2023-02-22T07:09:35.654Z,7.23
2023-02-22T07:12:02.185Z,7.00
2023-02-22T07:14:28.778Z,8.23
2023-02-22T07:16:55.575Z,6.80
2023-02-22T07:19:22.148Z,7.93
2023-02-22T07:21:48.763Z,7.23
2023-02-22T07:24:15.315Z,7.67
2023-02-22T07:26:42.757Z,8.27
2023-02-22T07:29:11.155Z,6.07
2023-02-22T07:31:38.383Z,8.03
2023-02-22T07:34:04.961Z,6.60
2023-02-22T07:36:31.548Z,7.47
2023-02-22T07:38:58.216Z,7.97
2023-02-22T07:41:25.551Z,7.33
2023-02-22T07:43:52.344Z,7.57
2023-02-22T07:46:18.911Z,8.27
2023-02-22T07:48:45.448Z,7.10
2023-02-22T07:51:16.040Z,7.47
2023-02-22T07:53:42.891Z,6.53
2023-02-22T07:56:09.450Z,6.73
2023-02-22T07:58:36.002Z,7.57
2023-02-22T08:01:02.610Z,6.83
2023-02-22T08:03:34.444Z,7.63
2023-02-22T08:06:02.875Z,7.53
2023-02-22T08:08:29.584Z,7.73
2023-02-22T08:10:56.489Z,6.97
2023-02-22T08:13:23.798Z,7.40
2023-02-22T08:15:53.519Z,7.13
2023-02-22T08:18:22.307Z,7.13
2023-02-22T08:20:51.740Z,7.70
2023-02-22T08:23:20.048Z,6.97
2023-02-22T08:25:46.648Z,7.73
2023-02-22T08:28:15.858Z,7.70
2023-02-22T08:30:43.758Z,7.30
2023-02-22T08:33:14.221Z,8.30
2023-02-22T08:35:41.180Z,9.03
2023-02-22T08:38:14.976Z,7.40
2023-02-22T08:40:41.525Z,8.07
2023-02-22T08:43:08.076Z,7.90
2023-02-22T08:45:34.980Z,7.03
2023-02-22T08:48:02.208Z,7.00
2023-02-22T08:50:32.805Z,7.17
2023-02-22T08:53:01.871Z,7.13
2023-02-22T08:55:35.236Z,6.80
2023-02-22T08:58:05.812Z,6.27
2023-02-22T09:00:33.628Z,6.97
2023-02-22T09:03:03.778Z,7.57
2023-02-22T09:05:31.610Z,7.37
2023-02-22T09:07:58.581Z,6.07
2023-02-22T09:10:27.631Z,7.80
2023-02-22T09:12:58.190Z,6.30
2023-02-22T09:15:25.371Z,6.53
2023-02-22T09:17:52.873Z,6.30
2023-02-22T09:20:21.678Z,7.60
2023-02-22T09:22:49.424Z,5.97
2023-02-22T09:25:17.700Z,6.70
2023-02-22T09:27:47.808Z,7.90
2023-02-22T09:30:47.191Z,6.43
2023-02-22T09:33:17.115Z,6.50
2023-02-22T09:35:49.623Z,7.93
2023-02-22T09:38:19.156Z,7.77
2023-02-22T09:40:55.367Z,7.50
2023-02-22T09:43:37.776Z,7.07
2023-02-22T09:46:18.928Z,6.73
2023-02-22T09:48:58.931Z,6.80
2023-02-22T09:51:49.257Z,7.27
2023-02-22T09:54:22.284Z,7.00
2023-02-22T09:56:52.236Z,8.57
2023-02-22T09:59:26.814Z,7.87
2023-02-22T10:02:14.532Z,8.73
2023-02-22T10:04:44.868Z,7.47
2023-02-22T10:07:32.494Z,7.77
2023-02-22T10:10:06.128Z,7.77
2023-02-22T10:12:55.508Z,7.97
2023-02-22T10:15:51.677Z,6.97
2023-02-22T10:18:43.976Z,8.33
2023-02-22T10:21:29.613Z,11.27
2023-02-22T10:24:17.735Z,14.00
2023-02-22T10:26:45.173Z,15.93
2023-02-22T10:29:19.020Z,15.83
2023-02-22T10:31:50.343Z,13.90
2023-02-22T10:34:23.371Z,13.80
2023-02-22T10:36:56.578Z,13.23
2023-02-22T10:39:33.328Z,14.00
2023-02-22T10:42:08.036Z,12.97
2023-02-22T10:44:40.546Z,11.53
2023-02-22T10:47:11.088Z,12.33
2023-02-22T10:49:56.170Z,13.70
2023-02-22T10:52:30.199Z,13.87
2023-02-22T10:55:13.808Z,13.50
2023-02-22T10:57:43.877Z,11.93
2023-02-22T11:00:19.692Z,11.30
2023-02-22T11:02:53.991Z,9.90
2023-02-22T11:05:37.068Z,10.17
2023-02-22T11:08:21.912Z,10.43
2023-02-22T11:10:50.587Z,9.73
2023-02-22T11:13:25.787Z,10.47
2023-02-22T11:15:54.396Z,10.77
2023-02-22T11:18:34.982Z,10.43
2023-02-22T11:21:11.451Z,9.93
2023-02-22T11:23:44.691Z,9.93
2023-02-22T11:26:20.297Z,9.80
2023-02-22T11:28:55.988Z,11.40
2023-02-22T11:31:26.992Z,8.83
2023-02-22T11:36:40.303Z,9.73
2023-02-22T11:39:28.893Z,8.33
2023-02-22T11:41:56.313Z,8.57
2023-02-22T11:44:32.111Z,9.07
2023-02-22T11:47:06.703Z,9.47
2023-02-22T11:49:38.132Z,9.33
2023-02-22T11:52:37.004Z,9.13
2023-02-22T11:55:42.449Z,9.87
2023-02-22T11:58:39.336Z,9.57
2023-02-22T12:01:17.423Z,8.93
2023-02-22T12:04:22.999Z,7.77
2023-02-22T12:07:15.300Z,8.30
2023-02-22T12:09:41.807Z,8.23
2023-02-22T12:12:24.494Z,8.60
2023-02-22T12:15:09.248Z,8.73
2023-02-22T12:17:59.290Z,9.20
2023-02-22T12:20:51.567Z,8.40
2023-02-22T12:23:30.906Z,7.83
2023-02-22T12:26:05.405Z,8.07
2023-02-22T12:28:40.436Z,6.97
2023-02-22T12:31:28.445Z,7.93
2023-02-22T12:34:25.608Z,7.07
2023-02-22T12:36:57.542Z,7.67
2023-02-22T12:39:28.299Z,7.67
2023-02-22T12:41:56.891Z,6.90
2023-02-22T12:44:36.387Z,7.17
2023-02-22T12:47:05.434Z,9.20
2023-02-22T12:49:48.069Z,7.97
2023-02-22T12:52:41.516Z,7.27
2023-02-22T12:55:39.048Z,7.47
2023-02-22T12:58:27.208Z,7.27
2023-02-22T13:01:18.601Z,8.27
2023-02-22T13:03:46.120Z,6.43
2023-02-22T13:06:22.193Z,7.33
2023-02-22T13:09:05.445Z,6.97
2023-02-22T13:11:56.526Z,7.23
2023-02-22T13:15:05.022Z,8.07
2023-02-22T13:17:44.027Z,7.10
2023-02-22T13:20:18.348Z,6.97
2023-02-22T13:22:59.628Z,6.97
2023-02-22T13:25:41.367Z,7.07
2023-02-22T13:28:26.080Z,6.93
2023-02-22T13:31:18.353Z,6.77
2023-02-22T13:33:45.086Z,6.83
2023-02-22T13:36:35.051Z,6.33
2023-02-22T13:39:34.438Z,6.97
2023-02-22T13:42:49.960Z,7.30
2023-02-22T13:45:26.943Z,6.57
2023-02-22T13:48:13.837Z,7.40
2023-02-22T13:51:20.594Z,7.07
2023-02-22T13:54:19.529Z,7.60
2023-02-22T13:56:48.970Z,6.13
2023-02-22T13:59:36.701Z,6.63
2023-02-22T14:02:07.609Z,6.73
2023-02-22T14:04:38.517Z,7.17
2023-02-22T14:07:25.837Z,6.83
2023-02-22T14:09:57.028Z,7.27
2023-02-22T14:12:29.410Z,7.07
2023-02-22T14:15:27.774Z,6.40
2023-02-22T14:18:07.237Z,7.10
2023-02-22T14:20:38.206Z,7.27
2023-02-22T14:23:23.616Z,6.80
2023-02-22T14:25:51.313Z,6.93
2023-02-22T14:28:33.089Z,7.13
2023-02-22T14:31:36.563Z,7.60
2023-02-22T14:34:52.420Z,7.03
2023-02-22T14:37:29.799Z,6.57
2023-02-22T14:40:22.307Z,6.40
2023-02-22T14:42:52.495Z,6.87
2023-02-22T14:45:43.178Z,7.43
2023-02-22T14:48:39.158Z,6.93
2023-02-22T14:51:34.243Z,6.60
2023-02-22T14:54:19.123Z,6.83
2023-02-22T14:57:14.659Z,8.93
2023-02-22T15:00:01.273Z,7.13
2023-02-22T15:02:38.632Z,7.43
2023-02-22T15:05:05.419Z,7.37
2023-02-22T15:07:35.667Z,7.43
2023-02-22T15:10:20.612Z,6.77
2023-02-22T15:13:09.211Z,7.33
2023-02-22T15:15:38.609Z,6.80
2023-02-22T15:18:11.981Z,7.17
2023-02-22T15:20:38.604Z,7.43
2023-02-22T15:23:05.256Z,6.93
2023-02-22T15:25:32.405Z,7.17
2023-02-22T15:28:05.307Z,7.07
2023-02-22T15:30:34.231Z,6.60
2023-02-22T15:33:38.205Z,6.73
2023-02-22T15:36:05.203Z,7.40
2023-02-22T15:38:31.852Z,7.23
2023-02-22T15:41:09.732Z,7.17
2023-02-22T15:43:36.375Z,7.77
2023-02-22T15:46:06.583Z,7.77
2023-02-22T15:48:35.816Z,7.13
2023-02-22T15:51:13.686Z,6.97
2023-02-22T15:53:46.993Z,7.20
2023-02-22T15:56:29.831Z,7.00
2023-02-22T15:59:11.447Z,7.77
2023-02-22T16:01:42.476Z,6.90
2023-02-22T16:04:20.923Z,9.60
2023-02-22T16:06:48.099Z,7.50
2023-02-22T16:09:22.781Z,7.03
2023-02-22T16:11:49.621Z,6.83
2023-02-22T16:14:34.408Z,7.20
2023-02-22T16:17:41.186Z,7.63
2023-02-22T16:20:13.156Z,6.97
2023-02-22T16:22:41.114Z,6.97
2023-02-22T16:25:19.654Z,7.93
2023-02-22T16:27:48.669Z,7.17
2023-02-22T16:30:25.504Z,7.33
2023-02-22T16:32:55.153Z,7.80
2023-02-22T16:35:28.342Z,8.00
2023-02-22T16:37:58.395Z,7.67
2023-02-22T16:40:32.373Z,7.80
2023-02-22T16:43:12.492Z,7.90
2023-02-22T16:45:41.968Z,6.87
2023-02-22T16:48:30.027Z,8.67
2023-02-22T16:51:06.504Z,7.67
2023-02-22T16:53:33.854Z,8.43
2023-02-22T16:56:08.184Z,8.67
2023-02-22T16:58:37.916Z,8.80
2023-02-22T17:01:04.727Z,8.13
2023-02-22T17:03:31.359Z,6.83
2023-02-22T17:05:58.012Z,7.53
2023-02-22T17:08:24.816Z,8.37
2023-02-22T17:10:56.560Z,8.37
2023-02-22T17:13:27.096Z,8.30
2023-02-22T17:15:57.161Z,7.83
2023-02-22T17:18:28.278Z,7.50
2023-02-22T17:20:55.047Z,8.33
2023-02-22T17:23:23.023Z,7.53
2023-02-22T17:25:55.112Z,8.03
2023-02-22T17:28:23.638Z,8.33
2023-02-22T17:30:51.728Z,8.97
2023-02-22T17:33:21.666Z,8.50
2023-02-22T17:35:48.656Z,7.30
2023-02-22T17:38:19.078Z,7.93
2023-02-22T17:40:54.672Z,8.63
2023-02-22T17:43:22.676Z,8.43
2023-02-22T17:45:49.843Z,7.57
2023-02-22T17:48:17.797Z,6.97
2023-02-22T17:50:46.361Z,8.27
2023-02-22T17:53:13.934Z,8.00
2023-02-22T17:55:42.647Z,8.40
2023-02-22T17:58:14.870Z,8.17
2023-02-22T18:00:47.669Z,11.00
2023-02-22T18:03:25.462Z,12.20
2023-02-22T18:05:56.336Z,9.73
2023-02-22T18:08:24.400Z,7.50
2023-02-22T18:10:56.206Z,8.17
2023-02-22T18:13:24.870Z,9.17
2023-02-22T18:15:51.799Z,7.50
2023-02-22T18:18:18.449Z,11.05
2023-02-22T18:20:51.238Z,9.30
2023-02-22T18:23:20.976Z,12.70
2023-02-22T18:26:09.226Z,9.57
2023-02-22T18:28:37.382Z,7.90
2023-02-22T18:31:14.846Z,8.20
2023-02-22T18:33:43.193Z,7.03
2023-02-22T18:36:13.047Z,7.93
2023-02-22T18:38:44.599Z,9.10
2023-02-22T18:41:13.621Z,8.23
2023-02-22T18:43:41.247Z,8.43
2023-02-22T18:46:09.006Z,8.50
2023-02-22T18:48:36.364Z,8.97
2023-02-22T18:51:09.759Z,8.33
2023-02-22T18:53:37.519Z,8.53
2023-02-22T18:56:12.107Z,8.50
2023-02-22T18:58:39.177Z,7.90
2023-02-22T19:01:06.833Z,8.77
2023-02-22T19:03:37.832Z,8.03
2023-02-22T19:06:08.537Z,8.80
2023-02-22T19:08:39.932Z,8.30
2023-02-22T19:11:17.769Z,9.67
2023-02-22T19:13:48.646Z,9.03
2023-02-22T19:16:19.535Z,8.33
2023-02-22T19:18:47.552Z,9.20
2023-02-22T19:21:14.814Z,9.40
2023-02-22T19:23:46.158Z,9.83
2023-02-22T19:26:17.074Z,9.43
2023-02-22T19:28:45.049Z,9.97
2023-02-22T19:31:29.401Z,9.77
2023-02-22T19:33:59.082Z,9.43
2023-02-22T19:36:25.736Z,8.60
2023-02-22T19:38:52.384Z,9.27
2023-02-22T19:41:24.320Z,8.83
2023-02-22T19:43:52.920Z,9.50
2023-02-22T19:46:21.214Z,9.00
2023-02-22T19:48:49.177Z,9.47
2023-02-22T19:51:17.924Z,9.97
2023-02-22T19:53:46.254Z,9.47
2023-02-22T19:56:16.093Z,9.03
2023-02-22T19:58:44.512Z,8.73
2023-02-22T20:01:17.834Z,9.60
2023-02-22T20:03:44.732Z,9.73
2023-02-22T20:06:12.137Z,9.23
2023-02-22T20:08:41.827Z,9.77
2023-02-22T20:11:10.396Z,9.77
2023-02-22T20:13:40.664Z,8.07
2023-02-22T20:16:09.203Z,8.40
2023-02-22T20:18:36.889Z,9.87
2023-02-22T20:21:08.383Z,9.20
2023-02-22T20:23:35.483Z,8.63
2023-02-22T20:26:02.064Z,9.50
2023-02-22T20:28:29.367Z,9.17
2023-02-22T20:30:55.927Z,7.90
2023-02-22T20:33:23.586Z,9.33
2023-02-22T20:35:50.290Z,7.40
2023-02-22T20:38:19.182Z,9.07
2023-02-22T20:40:46.760Z,8.83
2023-02-22T20:43:13.413Z,8.60
2023-02-22T20:45:40.038Z,8.53
2023-02-22T20:48:06.841Z,9.40
2023-02-22T20:50:35.115Z,8.37
2023-02-22T20:53:04.803Z,8.37
2023-02-22T20:55:31.534Z,8.90
2023-02-22T20:57:58.115Z,10.73
2023-02-22T21:00:24.676Z,8.83
2023-02-22T21:02:51.438Z,10.27
2023-02-22T21:05:18.014Z,9.37
2023-02-22T21:07:44.572Z,10.70
2023-02-22T21:10:11.204Z,9.40
2023-02-22T21:12:37.833Z,9.37
2023-02-22T21:15:04.699Z,9.33
2023-02-22T21:17:31.263Z,8.83
2023-02-22T21:19:58.705Z,9.03
2023-02-22T21:22:25.613Z,8.73
2023-02-22T21:24:53.210Z,9.13
2023-02-22T21:27:19.822Z,8.83
2023-02-22T21:29:46.576Z,8.83
2023-02-22T21:32:13.850Z,10.10
2023-02-22T21:34:40.724Z,10.20
2023-02-22T21:37:08.164Z,12.17
2023-02-22T21:39:35.434Z,10.80
2023-02-22T21:42:02.580Z,10.33
2023-02-22T21:44:29.819Z,9.80
2023-02-22T21:46:57.014Z,10.43
2023-02-22T21:49:23.707Z,9.83
2023-02-22T21:51:51.549Z,10.93
2023-02-22T21:54:18.469Z,10.47
2023-02-22T21:56:45.342Z,10.47
2023-02-22T21:59:20.733Z,10.97
2023-02-22T22:01:55.256Z,12.03
2023-02-22T22:04:24.895Z,9.93
2023-02-22T22:06:53.244Z,10.27
2023-02-22T22:09:22.970Z,10.00
2023-02-22T22:11:54.604Z,10.50
2023-02-22T22:14:23.979Z,11.47
2023-02-22T22:16:53.039Z,10.33
2023-02-22T22:19:20.007Z,10.93
2023-02-22T22:21:46.858Z,11.03
2023-02-22T22:24:13.474Z,10.90
2023-02-22T22:26:40.144Z,10.47
2023-02-22T22:29:10.083Z,10.70
2023-02-22T22:31:37.193Z,10.70
2023-02-22T22:34:04.867Z,10.67
2023-02-22T22:36:31.598Z,10.63
2023-02-22T22:38:58.240Z,11.53
2023-02-22T22:41:27.900Z,11.03
2023-02-22T22:43:54.543Z,10.77
2023-02-22T22:46:21.484Z,11.30
2023-02-22T22:48:48.201Z,10.23
2023-02-22T22:51:19.530Z,10.53
2023-02-22T22:53:48.077Z,10.40
2023-02-22T22:56:28.998Z,10.30
2023-02-22T22:58:57.430Z,9.70
2023-02-22T23:01:27.829Z,11.07
2023-02-22T23:03:56.886Z,10.97
2023-02-22T23:06:32.712Z,11.20
2023-02-22T23:09:11.237Z,10.70
2023-02-22T23:11:44.418Z,10.47
2023-02-22T23:14:19.315Z,10.17
2023-02-22T23:16:47.331Z,10.57
2023-02-22T23:19:15.677Z,10.17
2023-02-22T23:21:43.918Z,10.47
2023-02-22T23:24:15.119Z,9.87
2023-02-22T23:26:42.745Z,10.47
2023-02-22T23:29:09.701Z,11.53
2023-02-22T23:31:39.569Z,8.63
2023-02-22T23:34:10.994Z,9.90
2023-02-22T23:36:44.472Z,10.90
2023-02-22T23:39:12.403Z,9.07
2023-02-22T23:41:38.943Z,9.70
2023-02-22T23:44:11.084Z,10.47
2023-02-22T23:46:41.236Z,11.67
2023-02-22T23:49:09.745Z,10.43
2023-02-22T23:51:42.782Z,9.20
2023-02-22T23:54:14.555Z,9.60
2023-02-22T23:56:47.246Z,11.10
2023-02-22T23:59:14.373Z,10.43
